Time;durP1;ratioP1;P1;durP2;ratioP2;P2;SDS_P1;SDS_P2;PMS_P1;PMS_P2;Temp;Humidity;BMP_temperature;BMP_pressure;BME280_temperature;BME280_humidity;BME280_pressure;Samples;Min_cycle;Max_cycle;Signal;HPM_P1;HPM_P2
2022/05/22 00:01:47;;;;;;;7.93;2.47;;;;;;;13.91;62.72;100817.38;5041740;28;20032;-83
2022/05/22 00:04:12;;;;;;;2.78;1.45;;;;;;;13.93;63.33;100821.56;5053085;28;20032;-83
2022/05/22 00:06:38;;;;;;;2.88;1.40;;;;;;;13.99;63.11;100814.97;5052605;28;20471;-83
2022/05/22 00:09:04;;;;;;;5.75;2.05;;;;;;;14.12;62.32;100812.22;5043206;28;20060;-83
2022/05/22 00:11:29;;;;;;;6.95;1.60;;;;;;;14.21;62.42;100811.53;5032633;28;20100;-83
2022/05/22 00:13:55;;;;;;;6.03;1.58;;;;;;;14.23;62.49;100804.34;5051814;28;20033;-83
2022/05/22 00:19:09;;;;;;;7.15;2.00;;;;;;;14.19;61.41;100810.81;5052918;28;20036;-83
2022/05/22 00:21:36;;;;;;;6.65;1.60;;;;;;;13.88;61.21;100802.56;5051041;28;20072;-83
2022/05/22 00:24:02;;;;;;;5.13;1.63;;;;;;;13.95;61.87;100805.59;5050665;28;20063;-83
2022/05/22 00:26:27;;;;;;;5.97;1.50;;;;;;;13.96;61.41;100799.34;5050968;28;20100;-83
2022/05/22 00:28:53;;;;;;;6.72;1.90;;;;;;;13.79;62.17;100800.66;5049441;28;20029;-83
2022/05/22 00:31:19;;;;;;;3.47;1.55;;;;;;;13.88;62.09;100794.66;5051286;28;20128;-83
2022/05/22 00:33:44;;;;;;;2.55;1.27;;;;;;;13.82;62.27;100793.34;5052407;28;20112;-83
2022/05/22 00:36:09;;;;;;;4.22;1.70;;;;;;;13.86;62.54;100786.88;5052408;28;20029;-82
2022/05/22 00:38:35;;;;;;;3.67;1.75;;;;;;;13.85;62.67;100784.34;5052635;28;20021;-82
2022/05/22 00:41:00;;;;;;;5.68;1.75;;;;;;;13.83;62.69;100783.63;5050804;28;20029;-83
2022/05/22 00:43:32;;;;;;;5.47;1.92;;;;;;;13.97;62.74;100777.28;5037360;28;20037;-83
2022/05/22 00:45:59;;;;;;;3.25;1.45;;;;;;;13.87;63.21;100777.97;5032485;28;20022;-83
2022/05/22 00:48:26;;;;;;;4.43;2.10;;;;;;;13.88;63.21;100782.31;5032607;28;20484;-83
2022/05/22 00:50:55;;;;;;;6.38;1.67;;;;;;;13.85;62.58;100781.72;5037085;28;20025;-83
2022/05/22 00:53:22;;;;;;;4.57;1.25;;;;;;;13.75;63.09;100781.56;5051807;28;20033;-83
2022/05/22 00:55:47;;;;;;;7.88;2.67;;;;;;;13.72;62.72;100775.66;5052055;28;20017;-83
2022/05/22 00:58:16;;;;;;;3.15;1.30;;;;;;;13.66;63.02;100769.03;5050194;28;20037;-83
2022/05/22 01:00:42;;;;;;;3.85;1.70;;;;;;;13.65;63.30;100775.28;5052004;28;20455;-83
2022/05/22 01:03:31;;;;;;;9.20;1.80;;;;;;;13.67;63.01;100770.75;5051914;28;20033;-83
2022/05/22 01:06:09;;;;;;;3.47;1.50;;;;;;;13.74;62.72;100761.38;5049110;28;20028;-83
2022/05/22 01:08:37;;;;;;;8.15;1.70;;;;;;;13.66;62.73;100763.75;5046142;28;20102;-83
2022/05/22 01:11:07;;;;;;;5.43;1.92;;;;;;;13.66;62.79;100758.50;5030945;28;20444;-83
2022/05/22 01:13:36;;;;;;;5.47;1.63;;;;;;;13.60;62.48;100756.31;5062788;28;20021;-82
2022/05/22 01:16:03;;;;;;;6.47;2.40;;;;;;;13.66;61.41;100761.13;5031783;28;20365;-83
2022/05/22 01:18:29;;;;;;;5.40;1.30;;;;;;;13.36;61.50;100759.81;5031514;28;20017;-83
2022/05/22 01:20:54;;;;;;;3.65;1.42;;;;;;;13.15;61.78;100756.09;5032116;28;20030;-82
2022/05/22 01:23:21;;;;;;;6.25;1.48;;;;;;;13.16;62.21;100757.78;5032575;28;20360;-83
2022/05/22 01:25:47;;;;;;;3.55;1.33;;;;;;;13.29;61.92;100746.25;5050524;28;20059;-83
2022/05/22 01:28:15;;;;;;;2.53;1.10;;;;;;;13.37;61.88;100748.34;5035123;28;20029;-82
2022/05/22 01:30:41;;;;;;;4.28;1.40;;;;;;;13.47;61.83;100745.84;5031464;28;20438;-81
2022/05/22 01:33:06;;;;;;;4.35;1.40;;;;;;;13.47;62.19;100748.50;5031224;28;20017;-82
2022/05/22 01:35:32;;;;;;;3.15;1.70;;;;;;;13.46;62.21;100747.63;5042651;28;20036;-82
2022/05/22 01:37:58;;;;;;;4.32;1.80;;;;;;;13.48;62.03;100731.69;5051572;28;20488;-82
2022/05/22 01:40:24;;;;;;;5.35;1.52;;;;;;;13.49;61.93;100730.75;5048214;28;20032;-82
2022/05/22 01:42:50;;;;;;;3.95;1.58;;;;;;;13.42;62.10;100740.06;5045834;28;20037;-82
2022/05/22 01:45:19;;;;;;;6.10;1.38;;;;;;;13.34;61.31;100734.53;5050315;28;20021;-82
2022/05/22 01:47:45;;;;;;;6.68;3.15;;;;;;;13.16;61.63;100742.81;5051440;28;20060;-82
2022/05/22 01:50:12;;;;;;;2.75;1.13;;;;;;;13.08;61.98;100734.63;5051431;28;20055;-82
2022/05/22 01:52:38;;;;;;;8.10;1.40;;;;;;;13.13;61.92;100726.38;5051471;28;20029;-82
2022/05/22 01:55:05;;;;;;;2.90;1.40;;;;;;;13.19;62.43;100728.56;5048573;28;20032;-82
2022/05/22 01:57:30;;;;;;;3.65;1.23;;;;;;;13.29;61.97;100713.75;5032471;28;20036;-82
2022/05/22 01:59:56;;;;;;;3.40;1.08;;;;;;;13.34;61.47;100714.25;5031664;28;20543;-82
2022/05/22 02:02:21;;;;;;;4.53;0.93;;;;;;;12.93;61.91;100712.03;5032280;28;20033;-82
2022/05/22 02:04:47;;;;;;;5.80;1.50;;;;;;;12.38;63.31;100708.91;5031415;28;20395;-82
2022/05/22 02:09:56;;;;;;;2.83;1.27;;;;;;;13.05;61.58;100714.63;5031870;28;20028;-82
2022/05/22 02:12:22;;;;;;;4.00;1.13;;;;;;;13.07;61.06;100717.09;5032141;28;20049;-81
2022/05/22 02:14:47;;;;;;;3.60;1.05;;;;;;;13.18;60.90;100703.16;5031161;28;20033;-82
2022/05/22 02:17:12;;;;;;;4.20;1.17;;;;;;;13.23;61.06;100699.22;5032037;28;20026;-82
2022/05/22 02:19:38;;;;;;;6.88;1.33;;;;;;;13.26;61.30;100700.78;5031172;28;20026;-82
2022/05/22 02:22:04;;;;;;;4.05;0.90;;;;;;;13.24;61.03;100707.97;5032311;28;20030;-83
2022/05/22 02:24:29;;;;;;;8.70;1.45;;;;;;;13.25;61.23;100702.59;5030960;28;20057;-83
2022/05/22 02:26:54;;;;;;;2.72;0.60;;;;;;;13.29;61.20;100695.28;5032592;28;20068;-83
2022/05/22 02:29:20;;;;;;;7.00;0.90;;;;;;;13.22;61.20;100686.97;5031646;28;20050;-83
2022/05/22 02:31:45;;;;;;;4.22;1.00;;;;;;;13.19;61.09;100689.00;5047021;28;20375;-83
2022/05/22 02:34:10;;;;;;;7.25;1.10;;;;;;;13.24;61.31;100681.59;5054645;28;20033;-83
2022/05/22 02:36:36;;;;;;;7.65;1.10;;;;;;;13.24;61.97;100686.88;5054632;28;20025;-83
2022/05/22 02:39:01;;;;;;;3.08;1.17;;;;;;;13.29;62.25;100676.84;5047537;28;20471;-82
2022/05/22 02:41:27;;;;;;;8.23;1.30;;;;;;;13.32;62.05;100675.78;5053204;28;20380;-82
2022/05/22 02:43:52;;;;;;;6.75;1.80;;;;;;;13.15;62.25;100683.13;5054317;28;20025;-82
2022/05/22 02:46:19;;;;;;;5.57;1.35;;;;;;;13.17;62.01;100675.09;5044067;28;20033;-82
2022/05/22 02:48:46;;;;;;;8.75;1.77;;;;;;;13.14;62.17;100675.34;5035371;28;20033;-82
2022/05/22 02:51:18;;;;;;;6.20;1.23;;;;;;;13.13;62.45;100678.91;5034364;28;20036;-82
2022/05/22 02:53:44;;;;;;;5.22;1.23;;;;;;;13.01;62.61;100673.63;5044960;28;20116;-82
2022/05/22 02:56:12;;;;;;;4.22;1.30;;;;;;;12.92;62.51;100666.38;5054114;28;20113;-82
2022/05/22 02:58:37;;;;;;;4.32;1.40;;;;;;;12.90;62.80;100669.13;5054232;28;20025;-82
2022/05/22 03:01:04;;;;;;;3.22;1.38;;;;;;;12.94;62.89;100664.47;5054294;28;20078;-82
2022/05/22 03:03:30;;;;;;;5.95;1.17;;;;;;;12.93;62.46;100664.56;5052424;28;20429;-82
2022/05/22 03:08:39;;;;;;;3.42;1.02;;;;;;;12.95;62.12;100663.50;5052058;28;20116;-82
2022/05/22 03:11:06;;;;;;;5.28;1.90;;;;;;;12.73;62.61;100666.88;5053818;28;20459;-82
2022/05/22 03:13:31;;;;;;;4.35;1.40;;;;;;;12.54;63.23;100662.13;5052244;28;20075;-82
2022/05/22 03:15:57;;;;;;;2.63;1.08;;;;;;;12.57;63.24;100667.16;5053898;28;20108;-82
2022/05/22 03:18:22;;;;;;;4.65;1.45;;;;;;;12.55;62.93;100658.50;5053934;28;20057;-82
2022/05/22 03:20:48;;;;;;;5.40;1.20;;;;;;;12.60;62.62;100659.03;5044765;28;20061;-82
2022/05/22 03:23:14;;;;;;;3.45;1.05;;;;;;;12.62;62.77;100658.94;5034568;28;20076;-82
2022/05/22 03:25:40;;;;;;;4.60;1.17;;;;;;;12.43;63.19;100659.41;5032582;28;20034;-82
2022/05/22 03:28:06;;;;;;;9.55;1.80;;;;;;;12.39;63.08;100650.88;5032644;28;20029;-82
2022/05/22 03:30:31;;;;;;;3.05;1.10;;;;;;;12.49;62.65;100658.97;5033654;28;20388;-82
2022/05/22 03:32:57;;;;;;;5.95;1.15;;;;;;;12.52;63.38;100653.50;5033513;28;20030;-82
2022/05/22 03:35:23;;;;;;;4.30;1.90;;;;;;;12.57;63.10;100656.59;5035503;28;20037;-82
2022/05/22 03:37:48;;;;;;;4.30;1.60;;;;;;;12.59;62.85;100648.59;5034635;28;20045;-82
2022/05/22 03:40:14;;;;;;;6.20;1.30;;;;;;;12.61;63.10;100644.91;5035544;28;20024;-82
2022/05/22 03:42:40;;;;;;;5.35;0.88;;;;;;;12.50;63.15;100644.84;5032015;28;20022;-82
2022/05/22 03:45:06;;;;;;;2.67;0.90;;;;;;;12.39;63.20;100642.16;5032345;28;20052;-82
2022/05/22 03:47:32;;;;;;;4.47;1.02;;;;;;;12.38;63.23;100645.72;5033648;28;20028;-82
2022/05/22 03:49:57;;;;;;;2.92;1.13;;;;;;;12.62;62.96;100632.59;5033244;28;20025;-82
2022/05/22 03:52:23;;;;;;;5.47;0.98;;;;;;;12.57;62.98;100640.81;5039870;28;20467;-82
2022/05/22 03:54:48;;;;;;;7.13;1.10;;;;;;;12.60;63.22;100640.59;5053032;28;20139;-82
2022/05/22 03:57:14;;;;;;;2.83;0.80;;;;;;;12.55;63.46;100637.44;5049950;28;20064;-81
2022/05/22 03:59:40;;;;;;;6.88;1.42;;;;;;;12.64;63.24;100642.06;5053182;28;20025;-81
2022/05/22 04:02:06;;;;;;;6.93;1.17;;;;;;;12.60;63.44;100635.34;5052925;28;20032;-84
2022/05/22 04:04:32;;;;;;;2.58;1.02;;;;;;;12.64;63.47;100626.25;5053024;28;20025;-83
2022/05/22 04:06:57;;;;;;;2.55;0.75;;;;;;;12.59;63.55;100622.25;5045903;28;20017;-83
2022/05/22 04:09:26;;;;;;;8.00;1.27;;;;;;;12.64;63.35;100620.97;5032536;28;20068;-82
2022/05/22 04:11:51;;;;;;;4.55;0.82;;;;;;;12.50;63.86;100623.78;5032913;28;20034;-82
2022/05/22 04:14:18;;;;;;;3.03;0.98;;;;;;;12.50;63.34;100621.16;5032966;28;20124;-82
2022/05/22 04:16:43;;;;;;;2.17;0.80;;;;;;;12.33;63.30;100621.53;5032866;28;20028;-82
2022/05/22 04:19:09;;;;;;;5.35;1.35;;;;;;;12.38;63.41;100608.84;5033848;28;20026;-82
2022/05/22 04:21:35;;;;;;;4.43;1.42;;;;;;;12.24;64.02;100607.22;5032938;28;20120;-82
2022/05/22 04:26:44;;;;;;;5.25;1.35;;;;;;;12.56;63.36;100604.91;5052302;28;20079;-83
2022/05/22 04:29:10;;;;;;;3.45;1.27;;;;;;;12.58;63.07;100597.72;5051228;28;20063;-83
2022/05/22 04:31:35;;;;;;;5.15;1.50;;;;;;;12.67;63.37;100597.03;5052696;28;20159;-83
2022/05/22 04:34:01;;;;;;;4.82;1.33;;;;;;;12.43;63.48;100598.84;5033733;28;20127;-83
2022/05/22 04:36:26;;;;;;;5.03;1.42;;;;;;;12.60;62.65;100590.53;5033115;28;20055;-82
2022/05/22 04:38:51;;;;;;;4.00;0.85;;;;;;;12.72;62.41;100595.84;5032556;28;20030;-82
2022/05/22 04:41:17;;;;;;;3.35;0.90;;;;;;;12.73;62.85;100592.28;5032558;28;20123;-83
2022/05/22 04:43:42;;;;;;;3.95;1.02;;;;;;;12.57;63.44;100590.75;5032474;28;20099;-83
2022/05/22 04:46:08;;;;;;;5.20;1.20;;;;;;;12.65;63.26;100591.03;5031214;28;20033;-83
2022/05/22 04:48:34;;;;;;;5.25;1.00;;;;;;;12.78;63.00;100590.97;5032436;28;20056;-83
2022/05/22 04:50:59;;;;;;;6.00;1.38;;;;;;;12.88;62.96;100599.03;5032943;28;20029;-83
2022/05/22 04:53:26;;;;;;;4.97;0.98;;;;;;;13.00;62.94;100603.38;5031741;28;20048;-83
2022/05/22 04:55:52;;;;;;;2.22;1.00;;;;;;;13.03;63.34;100608.44;5032185;28;20032;-83
2022/05/22 04:58:18;;;;;;;5.85;1.08;;;;;;;13.13;63.52;100594.56;5033176;28;20017;-83
2022/05/22 05:00:44;;;;;;;3.88;0.90;;;;;;;13.19;63.07;100600.22;5032198;28;20542;-83
2022/05/22 05:03:10;;;;;;;2.80;0.90;;;;;;;13.37;62.93;100603.28;5033539;28;20038;-83
2022/05/22 05:05:35;;;;;;;6.97;1.40;;;;;;;13.33;63.09;100604.47;5047544;28;20082;-83
2022/05/22 05:08:00;;;;;;;2.92;0.73;;;;;;;13.40;63.24;100605.66;5051800;28;20017;-83
2022/05/22 05:10:27;;;;;;;1.83;0.75;;;;;;;13.51;63.31;100604.00;5050751;28;20028;-83
2022/05/22 05:12:52;;;;;;;4.13;1.10;;;;;;;13.48;63.17;100602.44;5048887;28;20036;-82
2022/05/22 05:15:20;;;;;;;3.03;0.90;;;;;;;13.53;63.11;100604.75;5050068;28;20245;-82
2022/05/22 05:17:47;;;;;;;3.38;0.77;;;;;;;13.45;62.65;100595.63;5045041;28;20052;-83
2022/05/22 05:20:16;;;;;;;4.22;1.15;;;;;;;13.49;62.41;100607.59;5031777;28;20049;-83
2022/05/22 05:22:42;;;;;;;5.63;1.20;;;;;;;13.50;62.71;100603.16;5049822;28;20033;-83
2022/05/22 05:25:08;;;;;;;1.27;0.75;;;;;;;13.56;62.71;100599.22;5051812;28;20386;-83
2022/05/22 05:27:33;;;;;;;5.68;1.00;;;;;;;13.55;62.21;100600.19;5051785;28;20029;-83
2022/05/22 05:29:59;;;;;;;2.08;1.00;;;;;;;13.54;62.68;100598.50;5051822;28;20538;-83
2022/05/22 05:32:25;;;;;;;4.55;1.00;;;;;;;13.51;62.95;100601.34;5045584;28;20026;-83
2022/05/22 05:35:02;;;;;;;5.85;1.25;;;;;;;13.59;63.15;100601.63;5032277;28;20037;-83
2022/05/22 05:37:27;;;;;;;2.13;0.82;;;;;;;13.68;62.41;100595.63;5031794;28;20079;-83
2022/05/22 05:39:53;;;;;;;2.67;1.10;;;;;;;13.79;62.17;100592.16;5031768;28;20022;-83
2022/05/22 05:42:19;;;;;;;6.93;1.15;;;;;;;13.84;62.21;100582.91;5031552;28;20458;-83
2022/05/22 05:44:45;;;;;;;5.70;1.30;;;;;;;14.04;61.42;100568.13;5030157;28;20133;-83
2022/05/22 05:47:11;;;;;;;2.75;0.70;;;;;;;14.21;60.65;100574.69;5035190;28;20060;-83
2022/05/22 05:49:37;;;;;;;6.15;1.55;;;;;;;14.14;61.30;100580.56;5051306;28;20052;-82
2022/05/22 05:52:03;;;;;;;3.67;1.30;;;;;;;14.19;61.17;100576.59;5051397;28;20033;-82
2022/05/22 05:54:29;;;;;;;3.25;1.27;;;;;;;14.27;61.23;100582.09;5051448;28;20037;-83
2022/05/22 05:56:55;;;;;;;5.85;1.52;;;;;;;14.28;61.15;100577.69;5051387;28;20021;-84
2022/05/22 05:59:20;;;;;;;3.33;1.48;;;;;;;14.33;60.71;100577.31;5051356;28;20032;-84
2022/05/22 06:01:46;;;;;;;4.93;1.50;;;;;;;14.37;61.33;100579.56;5046272;28;20064;-84
2022/05/22 06:04:11;;;;;;;6.22;1.30;;;;;;;14.47;60.60;100583.16;5051122;28;20112;-84
2022/05/22 06:06:36;;;;;;;3.33;1.02;;;;;;;14.67;60.30;100578.06;5053186;28;20067;-84
2022/05/22 06:09:02;;;;;;;4.78;1.45;;;;;;;14.78;60.49;100580.66;5053708;28;20047;-84
2022/05/22 06:11:28;;;;;;;3.30;1.48;;;;;;;14.83;60.45;100580.25;5053823;28;20047;-84
2022/05/22 06:13:54;;;;;;;4.00;1.50;;;;;;;14.97;60.01;100579.97;5054827;28;20471;-84
2022/05/22 06:16:19;;;;;;;6.15;1.63;;;;;;;15.13;60.42;100579.53;5048802;28;20380;-84
2022/05/22 06:18:44;;;;;;;3.30;1.23;;;;;;;15.27;59.93;100576.53;5034803;28;20030;-84
2022/05/22 06:21:12;;;;;;;5.40;1.30;;;;;;;15.77;59.33;100580.28;5041527;28;20108;-82
2022/05/22 06:23:38;;;;;;;8.57;1.80;;;;;;;18.42;51.44;100581.44;5054834;28;20033;-82
2022/05/22 06:26:07;;;;;;;8.90;1.77;;;;;;;20.81;46.16;100559.53;5054382;28;20387;-83
2022/05/22 06:28:33;;;;;;;3.00;0.98;;;;;;;24.17;38.73;100558.22;5054780;28;20035;-84
2022/05/22 06:30:58;;;;;;;7.18;1.35;;;;;;;26.87;34.85;100552.13;5052964;28;20096;-83
2022/05/22 06:33:24;;;;;;;6.17;1.20;;;;;;;27.69;33.24;100558.81;5038300;28;20033;-83
2022/05/22 06:35:49;;;;;;;4.78;1.45;;;;;;;29.86;30.53;100551.31;5034449;28;20025;-83
2022/05/22 06:41:05;;;;;;;4.88;1.20;;;;;;;33.25;25.62;100525.81;5054572;28;20129;-83
2022/05/22 06:43:30;;;;;;;4.15;1.17;;;;;;;34.26;24.53;100505.44;5054434;28;20036;-83
2022/05/22 06:45:55;;;;;;;5.70;1.30;;;;;;;34.57;23.55;100504.59;5052878;28;20029;-84
2022/05/22 06:48:21;;;;;;;11.25;1.45;;;;;;;35.54;23.38;100500.78;5049807;28;20013;-84
2022/05/22 06:50:46;;;;;;;4.90;1.10;;;;;;;36.42;21.96;100499.03;5053789;28;20040;-84
2022/05/22 06:53:11;;;;;;;4.38;1.27;;;;;;;37.00;21.66;100515.91;5053130;28;20035;-84
2022/05/22 06:55:37;;;;;;;6.72;1.40;;;;;;;37.31;21.63;100510.34;5052728;28;20024;-85
2022/05/22 06:58:02;;;;;;;6.53;1.30;;;;;;;37.26;21.34;100521.31;5054418;28;20079;-86
2022/05/22 07:00:30;;;;;;;6.05;1.80;;;;;;;37.74;20.37;100491.53;5048885;28;20386;-85
2022/05/22 07:02:55;;;;;;;5.28;1.63;;;;;;;38.56;19.66;100451.69;5054072;28;20038;-84
2022/05/22 07:05:21;;;;;;;3.60;1.02;;;;;;;37.90;20.20;100451.94;5053957;28;20037;-85
2022/05/22 07:07:47;;;;;;;7.57;1.77;;;;;;;39.01;18.57;100436.63;5053169;28;20035;-85
2022/05/22 07:10:14;;;;;;;6.13;2.17;;;;;;;38.75;19.58;100492.91;5038841;28;20033;-86
2022/05/22 07:12:39;;;;;;;10.38;1.50;;;;;;;40.05;19.23;100502.75;5052268;28;20390;-86
2022/05/22 07:15:06;;;;;;;4.90;1.30;;;;;;;39.38;19.57;100497.38;5051590;28;20025;-86
2022/05/22 07:17:32;;;;;;;10.70;1.60;;;;;;;38.84;19.35;100480.16;5044712;28;20017;-86
2022/05/22 07:19:58;;;;;;;7.03;2.05;;;;;;;39.35;18.80;100386.19;5034319;28;20043;-86
2022/05/22 07:22:24;;;;;;;4.25;1.30;;;;;;;40.67;18.09;100370.44;5048642;28;20483;-86
2022/05/22 07:24:50;;;;;;;5.40;0.88;;;;;;;41.46;17.39;100368.47;5037725;28;20029;-86
2022/05/22 07:27:16;;;;;;;5.55;1.27;;;;;;;41.44;17.40;100431.34;5034217;28;20109;-87
2022/05/22 07:29:42;;;;;;;5.20;1.42;;;;;;;40.41;18.21;100466.44;5039313;28;20029;-89
2022/05/22 07:32:08;;;;;;;5.75;1.45;;;;;;;40.72;18.11;100461.19;5053134;28;20028;-89
2022/05/22 07:34:34;;;;;;;5.70;1.60;;;;;;;40.42;18.74;100443.31;5052418;28;20542;-86
2022/05/22 07:37:06;;;;;;;6.70;1.60;;;;;;;40.80;17.71;100363.31;5053458;28;20108;-86
2022/05/22 07:39:32;;;;;;;2.83;1.10;;;;;;;40.12;18.33;100357.47;5047046;28;20383;-87
2022/05/22 07:41:57;;;;;;;5.93;1.35;;;;;;;41.12;18.20;100369.78;5048938;28;20060;-88
2022/05/22 07:44:23;;;;;;;3.10;0.90;;;;;;;41.55;17.78;100440.97;5039893;28;20066;-87
2022/05/22 07:46:49;;;;;;;4.85;1.45;;;;;;;41.79;17.81;100422.22;5034161;28;20488;-87
2022/05/22 07:52:05;;;;;;;4.45;1.02;;;;;;;42.11;16.92;100420.34;5037459;28;20040;-87
2022/05/22 07:54:34;;;;;;;5.35;2.05;;;;;;;41.82;17.07;100426.28;5046805;28;20092;-87
2022/05/22 07:56:59;;;;;;;3.13;1.08;;;;;;;41.67;17.96;100416.47;5049469;28;20072;-86
2022/05/22 07:59:24;;;;;;;4.43;0.75;;;;;;;41.64;17.29;100419.03;5048845;28;20044;-86
2022/05/22 08:01:50;;;;;;;4.70;1.30;;;;;;;40.94;17.44;100424.69;5049664;28;20021;-87
2022/05/22 08:04:15;;;;;;;3.78;0.95;;;;;;;40.75;18.22;100419.28;5037172;28;20037;-86
2022/05/22 08:06:40;;;;;;;5.55;0.80;;;;;;;41.13;18.68;100420.97;5032135;28;20033;-86
2022/05/22 08:09:06;;;;;;;6.55;1.75;;;;;;;41.27;17.99;100415.47;5041183;28;20036;-85
2022/05/22 08:11:31;;;;;;;2.95;0.90;;;;;;;41.25;18.02;100412.19;5031257;28;20034;-85
2022/05/22 08:13:56;;;;;;;7.00;1.75;;;;;;;40.19;19.02;100412.09;5031823;28;20528;-84
2022/05/22 08:16:22;;;;;;;4.93;1.30;;;;;;;41.06;18.45;100421.41;5033777;28;20539;-85
2022/05/22 08:18:47;;;;;;;5.82;1.35;;;;;;;41.58;18.19;100426.59;5031955;28;20056;-86
2022/05/22 08:21:12;;;;;;;4.00;0.93;;;;;;;40.55;18.13;100428.75;5031851;28;20476;-86
2022/05/22 08:23:38;;;;;;;4.55;0.95;;;;;;;39.93;19.23;100422.69;5032098;28;20040;-86
2022/05/22 08:26:03;;;;;;;3.03;1.08;;;;;;;40.83;19.23;100413.06;5036615;28;20029;-86
2022/05/22 08:28:29;;;;;;;3.38;0.70;;;;;;;41.16;18.35;100417.63;5039606;28;20025;-86
2022/05/22 08:30:54;;;;;;;5.75;1.17;;;;;;;39.58;20.20;100422.16;5050217;28;20048;-86
2022/05/22 08:33:20;;;;;;;2.83;0.90;;;;;;;40.08;20.06;100424.38;5049826;28;20021;-86
2022/05/22 08:35:45;;;;;;;3.58;1.00;;;;;;;40.69;19.46;100422.44;5050845;28;20043;-86
2022/05/22 08:38:11;;;;;;;3.15;1.20;;;;;;;40.60;19.45;100409.41;5049103;28;20158;-86
2022/05/22 08:41:08;;;;;;;2.70;0.90;;;;;;;37.25;22.08;100412.91;5032454;28;20041;-86
2022/05/22 08:43:51;;;;;;;4.38;0.85;;;;;;;34.08;25.67;100411.25;5040760;28;20032;-85
2022/05/22 08:46:35;;;;;;;3.65;0.90;;;;;;;36.77;23.54;100407.06;5038271;28;20108;-85
2022/05/22 08:49:11;;;;;;;4.47;1.08;;;;;;;37.60;22.19;100400.09;5032157;28;20086;-86
2022/05/22 08:51:45;;;;;;;3.33;0.93;;;;;;;39.31;22.15;100395.31;5032072;28;20022;-86
2022/05/22 08:54:22;;;;;;;4.20;1.15;;;;;;;38.85;21.46;100394.00;5043514;28;20068;-86
2022/05/22 08:59:35;;;;;;;2.47;0.60;;;;;;;38.49;21.57;100391.66;5052635;28;20028;-93
2022/05/22 09:02:16;;;;;;;4.75;0.95;;;;;;;38.75;21.70;100396.88;5054143;28;20021;-89
2022/05/22 09:05:16;;;;;;;4.82;1.17;;;;;;;40.16;20.04;100383.22;5037997;28;20042;-93
2022/05/22 09:07:55;;;;;;;7.13;1.20;;;;;;;40.19;19.61;100382.63;5033393;28;20429;-93
2022/05/22 09:10:27;;;;;;;3.75;0.90;;;;;;;39.09;20.01;100382.19;5033975;28;20036;-92
2022/05/22 09:13:09;;;;;;;2.63;0.77;;;;;;;37.78;22.14;100377.53;5035331;28;20041;-90
2022/05/22 09:15:44;;;;;;;2.20;0.60;;;;;;;36.39;23.33;100373.81;5042995;28;20080;-89
2022/05/22 09:18:31;;;;;;;4.55;1.02;;;;;;;36.02;24.02;100369.47;5044351;28;20028;-88
2022/05/22 09:21:19;;;;;;;4.90;0.70;;;;;;;33.36;26.25;100370.56;5042223;28;20034;-87
2022/05/22 09:24:01;;;;;;;4.40;0.60;;;;;;;33.22;27.08;100372.06;5032787;28;20555;-89
2022/05/22 09:26:38;;;;;;;5.28;0.68;;;;;;;31.52;28.58;100363.28;5032525;28;20503;-88
2022/05/22 09:29:21;;;;;;;4.20;0.57;;;;;;;30.26;30.84;100353.06;5044849;28;20031;-87
2022/05/22 09:32:09;;;;;;;1.08;0.40;;;;;;;28.95;32.40;100361.81;5030485;28;20029;-87
2022/05/22 09:35:04;;;;;;;2.42;0.50;;;;;;;29.00;32.64;100370.06;5045781;28;20025;-87
2022/05/22 09:38:07;;;;;;;2.05;0.55;;;;;;;28.18;33.94;100364.88;5026506;28;20626;-88
2022/05/22 09:40:45;;;;;;;4.95;0.50;;;;;;;27.79;34.29;100368.69;5019096;28;20446;-89
2022/05/22 09:43:11;;;;;;;1.35;0.38;;;;;;;27.37;34.85;100360.25;5034715;28;20060;-90
2022/05/22 09:45:39;;;;;;;1.80;0.43;;;;;;;27.56;35.18;100366.56;5037906;28;20072;-89
2022/05/22 09:48:32;;;;;;;2.25;0.45;;;;;;;27.71;34.62;100359.00;5035082;28;20084;-89
2022/05/22 09:51:16;;;;;;;1.20;0.32;;;;;;;26.80;35.88;100360.06;5039288;28;20731;-91
2022/05/22 09:54:03;;;;;;;1.83;0.43;;;;;;;26.88;36.88;100360.66;5044623;28;20029;-90
2022/05/22 09:57:02;;;;;;;1.23;0.32;;;;;;;27.62;35.77;100353.03;5049701;28;20021;-88
2022/05/22 09:59:37;;;;;;;5.93;0.50;;;;;;;27.19;36.43;100347.44;5034804;28;20028;-88
2022/05/22 10:02:21;;;;;;;2.28;0.38;;;;;;;27.65;35.56;100341.81;5039459;28;20037;-88
2022/05/22 10:04:53;;;;;;;1.25;0.30;;;;;;;27.96;35.19;100342.84;5033935;28;20108;-88
2022/05/22 10:07:22;;;;;;;3.42;0.73;;;;;;;27.50;35.75;100339.41;5035274;28;20370;-88
2022/05/22 10:10:15;;;;;;;3.42;0.57;;;;;;;28.52;34.01;100332.19;5034300;28;20384;-88
2022/05/22 10:13:16;;;;;;;1.98;0.32;;;;;;;28.85;33.57;100324.53;5033937;28;20022;-88
2022/05/22 10:16:15;;;;;;;2.10;0.40;;;;;;;30.02;31.52;100312.44;5040187;28;20064;-90
2022/05/22 10:19:20;;;;;;;1.55;0.28;;;;;;;31.50;30.48;100294.88;5038939;28;20036;-89
2022/05/22 10:22:05;;;;;;;1.27;0.20;;;;;;;32.47;28.74;100300.97;5059112;28;20025;-89
2022/05/22 10:24:55;;;;;;;1.35;0.20;;;;;;;32.91;27.98;100286.56;5041209;28;20033;-91
2022/05/22 10:27:49;;;;;;;3.05;0.40;;;;;;;33.83;28.21;100292.88;5047801;28;20032;-89
2022/05/22 10:30:14;;;;;;;3.80;0.40;;;;;;;33.08;26.91;100292.72;5016779;28;20061;-89
2022/05/22 10:32:39;;;;;;;1.07;0.33;;;;;;;34.60;25.59;100290.59;5016416;28;20037;-90
2022/05/22 10:38:09;;;;;;;6.97;0.85;;;;;;;33.71;26.70;100286.78;5062687;28;20671;-88
2022/05/22 10:43:18;;;;;;;2.28;0.55;;;;;;;33.37;26.67;100273.41;5039849;28;20048;-84
2022/05/22 10:45:44;;;;;;;1.20;0.28;;;;;;;33.90;25.86;100265.41;5048525;28;20033;-84
2022/05/22 10:48:09;;;;;;;1.33;0.30;;;;;;;33.94;26.30;100269.25;5047973;28;20859;-84
2022/05/22 10:50:36;;;;;;;3.63;0.70;;;;;;;33.62;26.42;100259.22;5048591;28;20025;-84
2022/05/22 10:53:02;;;;;;;4.13;0.70;;;;;;;34.22;25.49;100261.78;5035299;28;20032;-84
2022/05/22 10:55:45;;;;;;;2.22;0.45;;;;;;;34.56;26.16;100251.31;5041229;28;20399;-83
2022/05/22 10:58:28;;;;;;;3.28;0.50;;;;;;;34.53;25.55;100251.84;5034258;28;20029;-83
2022/05/22 11:01:02;;;;;;;2.15;0.40;;;;;;;34.23;26.81;100239.75;5070314;28;20048;-83
2022/05/22 11:03:34;;;;;;;2.45;0.57;;;;;;;34.23;25.67;100230.75;5084641;28;20051;-83
2022/05/22 11:06:03;;;;;;;1.58;0.40;;;;;;;33.52;27.05;100221.84;5086921;28;20033;-83
2022/05/22 11:08:32;;;;;;;3.10;0.60;;;;;;;33.53;27.54;100226.22;5088565;28;20024;-83
2022/05/22 11:11:13;;;;;;;1.85;0.30;;;;;;;33.38;27.43;100220.66;5088721;28;20077;-83
2022/05/22 11:13:40;;;;;;;3.30;0.70;;;;;;;33.50;27.04;100210.38;5088795;28;20020;-84
2022/05/22 11:16:18;;;;;;;2.00;0.50;;;;;;;32.82;27.98;100206.50;5088302;28;20367;-83
2022/05/22 11:18:44;;;;;;;2.75;0.50;;;;;;;33.70;25.94;100208.91;5068446;28;20371;-83
2022/05/22 11:21:14;;;;;;;2.40;0.70;;;;;;;33.18;26.77;100203.06;5072362;28;20020;-83
2022/05/22 11:23:48;;;;;;;2.13;0.30;;;;;;;33.75;26.33;100198.88;5088087;28;20076;-83
2022/05/22 11:26:31;;;;;;;4.63;0.35;;;;;;;34.42;24.96;100198.38;5088501;28;20448;-83
2022/05/22 11:29:15;;;;;;;0.85;0.30;;;;;;;34.35;25.82;100193.19;5088472;28;20030;-83
2022/05/22 11:31:53;;;;;;;1.38;0.55;;;;;;;34.66;25.03;100191.41;5088297;28;20374;-83
2022/05/22 11:34:42;;;;;;;1.25;0.20;;;;;;;34.72;24.59;100195.75;5088102;28;20027;-83
2022/05/22 11:37:29;;;;;;;2.55;0.73;;;;;;;33.30;26.53;100200.19;5087957;28;20394;-83
2022/05/22 11:40:19;;;;;;;3.50;0.60;;;;;;;34.04;25.41;100187.56;5087044;28;20552;-83
2022/05/22 11:42:45;;;;;;;2.57;0.80;;;;;;;34.71;25.40;100188.66;5087970;28;20393;-83
2022/05/22 11:45:32;;;;;;;2.15;0.43;;;;;;;34.73;24.55;100180.22;5088276;28;20467;-83
2022/05/22 11:48:04;;;;;;;1.00;0.35;;;;;;;34.49;25.05;100175.22;5083367;28;20032;-83
2022/05/22 11:50:33;;;;;;;1.95;0.43;;;;;;;34.10;26.41;100177.53;5074117;28;20115;-83
2022/05/22 11:53:13;;;;;;;1.05;0.20;;;;;;;33.66;26.15;100173.22;5073718;28;20589;-83
2022/05/22 11:55:58;;;;;;;4.80;0.85;;;;;;;33.93;26.26;100169.56;5074371;28;20029;-83
2022/05/22 11:58:34;;;;;;;3.40;0.30;;;;;;;33.88;25.57;100173.06;5072950;28;20067;-83
2022/05/22 12:01:21;;;;;;;1.17;0.63;;;;;;;33.69;27.41;100177.31;5074313;28;20490;-83